createdAt,value
2022-07-26T00:01:03.461Z,16.30
2022-07-26T00:03:31.804Z,16.40
2022-07-26T00:06:01.432Z,16.60
2022-07-26T00:08:29.584Z,16.60
2022-07-26T00:10:57.681Z,16.60
2022-07-26T00:13:30.114Z,16.70
2022-07-26T00:15:58.875Z,16.60
2022-07-26T00:18:27.554Z,16.60
2022-07-26T00:20:55.749Z,16.60
2022-07-26T00:23:25.308Z,16.60
2022-07-26T00:25:53.459Z,16.60
2022-07-26T00:28:21.575Z,16.70
2022-07-26T00:30:49.717Z,16.60
2022-07-26T00:33:17.873Z,16.70
2022-07-26T00:35:46.047Z,16.80
2022-07-26T00:38:14.363Z,16.90
2022-07-26T00:40:43.990Z,16.90
2022-07-26T00:43:12.063Z,17.00
2022-07-26T00:45:40.167Z,17.00
2022-07-26T00:48:08.395Z,17.00
2022-07-26T00:50:36.944Z,17.10
2022-07-26T00:53:05.110Z,16.80
2022-07-26T00:55:33.654Z,16.90
2022-07-26T00:58:03.226Z,17.00
2022-07-26T01:00:31.396Z,17.00
2022-07-26T01:03:00.556Z,17.00
2022-07-26T01:05:29.116Z,17.00
2022-07-26T01:07:58.441Z,17.20
2022-07-26T01:10:27.119Z,17.20
2022-07-26T01:12:55.274Z,17.20
2022-07-26T01:15:24.752Z,17.10
2022-07-26T01:17:52.812Z,17.10
2022-07-26T01:20:20.957Z,17.20
2022-07-26T01:22:50.569Z,17.10
2022-07-26T01:25:29.108Z,17.20
2022-07-26T01:27:57.318Z,17.30
2022-07-26T01:30:25.717Z,17.20
2022-07-26T01:32:53.970Z,17.30
2022-07-26T01:35:22.436Z,17.30
2022-07-26T01:37:51.909Z,17.40
2022-07-26T01:40:19.983Z,17.50
2022-07-26T01:42:48.075Z,17.50
2022-07-26T01:45:16.126Z,17.30
2022-07-26T01:47:44.644Z,17.20
2022-07-26T01:50:12.780Z,17.30
2022-07-26T01:52:40.896Z,17.40
2022-07-26T01:55:11.184Z,17.20
2022-07-26T01:57:39.362Z,17.30
2022-07-26T02:00:08.747Z,17.10
2022-07-26T02:02:37.013Z,17.20
2022-07-26T02:05:05.739Z,17.20
2022-07-26T02:07:42.576Z,17.10
2022-07-26T02:10:15.138Z,17.20
2022-07-26T02:12:43.421Z,17.10
2022-07-26T02:15:12.918Z,17.10
2022-07-26T02:17:56.050Z,17.10
2022-07-26T02:20:24.129Z,17.10
2022-07-26T02:22:52.243Z,17.20
2022-07-26T02:25:21.887Z,17.10
2022-07-26T02:27:49.989Z,17.30
2022-07-26T02:30:18.101Z,17.20
2022-07-26T02:32:46.228Z,17.30
2022-07-26T02:35:15.297Z,17.20
2022-07-26T02:37:43.893Z,17.10
2022-07-26T02:40:18.872Z,17.10
2022-07-26T02:42:48.855Z,17.10
2022-07-26T02:45:16.939Z,17.10
2022-07-26T02:47:49.377Z,17.10
2022-07-26T02:50:19.018Z,17.10
2022-07-26T02:52:48.132Z,17.10
2022-07-26T02:55:16.497Z,17.00
2022-07-26T02:57:45.672Z,17.10
2022-07-26T03:00:18.846Z,17.10
2022-07-26T03:02:49.048Z,17.00
2022-07-26T03:05:17.203Z,16.90
2022-07-26T03:07:45.390Z,17.10
2022-07-26T03:10:13.593Z,17.00
2022-07-26T03:12:42.696Z,17.10
2022-07-26T03:15:11.976Z,17.00
2022-07-26T03:17:41.469Z,16.80
2022-07-26T03:20:11.133Z,16.90
2022-07-26T03:22:39.223Z,16.90
2022-07-26T03:25:07.627Z,16.90
2022-07-26T03:27:36.042Z,17.00
2022-07-26T03:30:04.900Z,16.90
2022-07-26T03:32:33.046Z,16.90
2022-07-26T03:35:02.481Z,17.00
2022-07-26T03:37:45.065Z,16.70
2022-07-26T03:40:15.321Z,16.80
2022-07-26T03:42:43.549Z,16.70
2022-07-26T03:45:12.668Z,16.70
2022-07-26T03:47:40.762Z,16.80
2022-07-26T03:50:13.564Z,16.60
2022-07-26T03:52:42.079Z,16.70
2022-07-26T03:55:28.893Z,16.40
2022-07-26T03:57:57.070Z,16.40
2022-07-26T04:00:25.187Z,16.50
2022-07-26T04:02:53.337Z,16.60
2022-07-26T04:05:23.769Z,16.70
2022-07-26T04:07:54.240Z,16.70
2022-07-26T04:10:24.821Z,16.70
2022-07-26T04:12:53.135Z,16.60
2022-07-26T04:15:21.524Z,16.40
2022-07-26T04:17:49.955Z,16.30
2022-07-26T04:20:18.252Z,16.30
2022-07-26T04:22:47.788Z,16.20
2022-07-26T04:25:16.043Z,16.10
2022-07-26T04:27:44.308Z,16.10
2022-07-26T04:30:15.521Z,16.20
2022-07-26T04:32:44.215Z,16.40
2022-07-26T04:35:15.372Z,16.50
2022-07-26T04:37:44.791Z,16.60
2022-07-26T04:40:21.119Z,16.70
2022-07-26T04:42:50.527Z,16.80
2022-07-26T04:45:19.013Z,16.90
2022-07-26T04:47:49.833Z,16.90
2022-07-26T04:50:18.363Z,16.90
2022-07-26T04:52:46.448Z,16.80
2022-07-26T04:55:16.162Z,17.10
2022-07-26T04:57:44.383Z,17.50
2022-07-26T05:00:22.869Z,16.90
2022-07-26T05:02:53.903Z,17.00
2022-07-26T05:05:22.742Z,17.10
2022-07-26T05:07:52.891Z,17.00
2022-07-26T05:10:23.525Z,17.60
2022-07-26T05:12:51.595Z,18.60
2022-07-26T05:15:19.667Z,19.70
2022-07-26T05:17:48.254Z,19.80
2022-07-26T05:20:17.231Z,19.20
2022-07-26T05:22:46.118Z,19.40
2022-07-26T05:25:14.362Z,20.90
2022-07-26T05:27:43.785Z,20.90
2022-07-26T05:30:12.495Z,21.50
2022-07-26T05:32:40.844Z,22.60
2022-07-26T05:35:09.873Z,23.70
2022-07-26T05:37:38.327Z,23.90
2022-07-26T05:40:07.746Z,24.30
2022-07-26T05:42:36.061Z,25.60
2022-07-26T05:45:06.232Z,25.00
2022-07-26T05:47:34.448Z,25.40
2022-07-26T05:50:02.683Z,25.70
2022-07-26T05:52:30.837Z,27.10
2022-07-26T05:54:59.030Z,26.40
2022-07-26T05:57:27.194Z,23.70
2022-07-26T05:59:55.268Z,24.30
2022-07-26T06:02:24.810Z,22.60
2022-07-26T06:04:53.030Z,21.20
2022-07-26T06:07:21.228Z,20.40
2022-07-26T06:09:49.345Z,19.80
2022-07-26T06:12:17.439Z,19.60
2022-07-26T06:14:45.643Z,19.30
2022-07-26T06:17:13.796Z,19.50
2022-07-26T06:19:47.535Z,19.60
2022-07-26T06:22:16.114Z,19.40
2022-07-26T06:24:44.195Z,19.00
2022-07-26T06:27:12.370Z,19.00
2022-07-26T06:29:40.448Z,19.00
2022-07-26T06:32:08.843Z,19.00
2022-07-26T06:34:36.943Z,19.10
2022-07-26T06:37:06.430Z,18.90
2022-07-26T06:39:34.522Z,19.00
2022-07-26T06:42:02.657Z,18.80
2022-07-26T06:44:30.706Z,18.90
2022-07-26T06:46:58.827Z,19.00
2022-07-26T06:49:26.930Z,19.20
2022-07-26T06:51:57.635Z,19.20
2022-07-26T06:54:27.079Z,19.40
2022-07-26T06:56:55.155Z,19.50
2022-07-26T06:59:23.240Z,19.50
2022-07-26T07:01:59.494Z,19.60
2022-07-26T07:04:29.256Z,19.90
2022-07-26T07:07:02.345Z,19.80
2022-07-26T07:09:35.083Z,19.90
2022-07-26T07:12:09.736Z,20.00
2022-07-26T07:14:39.298Z,20.20
2022-07-26T07:17:10.356Z,20.00
2022-07-26T07:19:41.300Z,20.00
2022-07-26T07:22:11.869Z,20.10
2022-07-26T07:24:42.649Z,20.50
2022-07-26T07:27:12.037Z,20.40
2022-07-26T07:29:42.077Z,20.90
2022-07-26T07:32:15.804Z,21.20
2022-07-26T07:34:47.690Z,21.40
2022-07-26T07:37:16.266Z,21.40
2022-07-26T07:39:50.058Z,21.30
2022-07-26T07:42:19.233Z,21.30
2022-07-26T07:44:47.719Z,21.10
2022-07-26T07:47:15.852Z,20.60
2022-07-26T07:49:44.098Z,20.30
2022-07-26T07:52:12.382Z,20.50
2022-07-26T07:54:40.613Z,20.70
2022-07-26T07:57:11.869Z,20.50
2022-07-26T07:59:42.741Z,20.90
2022-07-26T08:02:12.757Z,21.00
2022-07-26T08:04:40.928Z,21.10
2022-07-26T08:07:09.068Z,21.10
2022-07-26T08:09:37.133Z,21.40
2022-07-26T08:12:12.669Z,21.30
2022-07-26T08:14:40.988Z,21.00
2022-07-26T08:17:09.634Z,21.20
2022-07-26T08:19:41.535Z,21.20
2022-07-26T08:22:10.918Z,21.00
2022-07-26T08:24:39.123Z,21.50
2022-07-26T08:27:07.453Z,21.40
2022-07-26T08:29:36.946Z,21.70
2022-07-26T08:32:05.360Z,22.00
2022-07-26T08:34:33.509Z,22.10
2022-07-26T08:37:16.577Z,22.90
2022-07-26T08:39:45.487Z,23.00
2022-07-26T08:42:17.393Z,23.10
2022-07-26T08:44:52.946Z,23.10
2022-07-26T08:47:37.722Z,23.70
2022-07-26T08:50:11.215Z,23.80
2022-07-26T08:52:41.652Z,25.40
2022-07-26T08:55:10.631Z,26.40
2022-07-26T08:57:38.805Z,27.10
2022-07-26T09:00:19.186Z,28.00
2022-07-26T09:02:48.060Z,28.60
2022-07-26T09:05:16.647Z,27.30
2022-07-26T09:07:45.334Z,26.50
2022-07-26T09:10:15.386Z,26.40
2022-07-26T09:12:44.374Z,26.70
2022-07-26T09:15:21.540Z,25.20
2022-07-26T09:17:52.055Z,25.00
2022-07-26T09:20:25.678Z,26.80
2022-07-26T09:23:05.354Z,27.90
2022-07-26T09:25:35.953Z,29.70
2022-07-26T09:28:05.715Z,30.80
2022-07-26T09:30:35.249Z,29.10
2022-07-26T09:33:06.552Z,27.40
2022-07-26T09:35:50.809Z,27.70
2022-07-26T09:38:20.837Z,29.80
2022-07-26T09:40:51.504Z,28.10
2022-07-26T09:43:24.138Z,27.20
2022-07-26T09:46:06.939Z,27.30
2022-07-26T09:49:06.931Z,29.50
2022-07-26T09:51:39.877Z,30.10
2022-07-26T09:54:08.788Z,31.30
2022-07-26T09:56:45.285Z,32.10
2022-07-26T09:59:15.305Z,30.60
2022-07-26T10:01:45.404Z,29.10
2022-07-26T10:04:14.331Z,27.00
2022-07-26T10:06:43.862Z,27.40
2022-07-26T10:09:13.737Z,26.40
2022-07-26T10:11:46.211Z,26.10
2022-07-26T10:14:36.480Z,25.50
2022-07-26T10:17:46.062Z,25.20
2022-07-26T10:20:40.923Z,25.10
2022-07-26T10:23:34.678Z,25.70
2022-07-26T10:26:03.295Z,25.40
2022-07-26T10:28:33.309Z,25.70
2022-07-26T10:31:33.090Z,25.40
2022-07-26T10:34:02.618Z,25.10
2022-07-26T10:36:36.506Z,25.10
2022-07-26T10:39:14.597Z,25.10
2022-07-26T10:41:45.785Z,24.80
2022-07-26T10:44:19.024Z,25.30
2022-07-26T10:47:05.205Z,25.60
2022-07-26T10:49:38.156Z,25.20
2022-07-26T10:52:16.227Z,25.80
2022-07-26T10:55:18.129Z,25.50
2022-07-26T10:57:48.938Z,25.50
2022-07-26T11:00:19.981Z,25.50
2022-07-26T11:02:55.890Z,25.70
2022-07-26T11:05:28.806Z,26.90
2022-07-26T11:08:05.106Z,28.90
2022-07-26T11:10:35.162Z,30.40
2022-07-26T11:13:08.977Z,30.70
2022-07-26T11:15:38.446Z,30.40
2022-07-26T11:18:19.441Z,31.00
2022-07-26T11:20:51.256Z,30.10
2022-07-26T11:23:32.335Z,30.60
2022-07-26T11:26:15.147Z,30.70
2022-07-26T11:28:52.887Z,30.70
2022-07-26T11:31:23.618Z,29.40
2022-07-26T11:34:18.507Z,27.80
2022-07-26T11:36:47.920Z,27.50
2022-07-26T11:39:22.247Z,26.40
2022-07-26T11:41:52.248Z,26.70
2022-07-26T11:44:22.224Z,27.60
2022-07-26T11:46:52.167Z,26.00
2022-07-26T11:49:22.871Z,24.50
2022-07-26T11:51:54.826Z,23.90
2022-07-26T11:54:25.644Z,24.10
2022-07-26T11:56:57.721Z,23.90
2022-07-26T11:59:27.722Z,23.30
2022-07-26T12:01:56.363Z,24.00
2022-07-26T12:04:25.800Z,24.70
2022-07-26T12:06:55.277Z,25.70
2022-07-26T12:09:32.930Z,24.40
2022-07-26T12:12:01.377Z,24.80
2022-07-26T12:14:30.751Z,25.40
2022-07-26T12:16:59.616Z,25.10
2022-07-26T12:19:30.550Z,24.70
2022-07-26T12:22:12.079Z,24.30
2022-07-26T12:24:46.359Z,25.80
2022-07-26T12:27:19.508Z,25.60
2022-07-26T12:29:49.358Z,26.10
2022-07-26T12:32:20.732Z,25.30
2022-07-26T12:35:00.277Z,26.60
2022-07-26T12:37:39.406Z,25.70
2022-07-26T12:40:11.973Z,25.80
2022-07-26T12:42:41.671Z,26.50
2022-07-26T12:45:11.592Z,27.40
2022-07-26T12:47:42.233Z,28.10
2022-07-26T12:50:12.587Z,26.40
2022-07-26T12:52:41.563Z,27.60
2022-07-26T12:55:14.721Z,26.00
2022-07-26T12:57:47.281Z,26.10
2022-07-26T13:00:18.476Z,25.70
2022-07-26T13:02:47.453Z,24.80
2022-07-26T13:05:16.670Z,23.80
2022-07-26T13:07:45.136Z,23.70
2022-07-26T13:10:32.293Z,23.80
2022-07-26T13:13:00.968Z,24.10
2022-07-26T13:15:36.380Z,23.70
2022-07-26T13:18:06.760Z,23.40
2022-07-26T13:20:34.979Z,22.80
2022-07-26T13:23:03.403Z,23.00
2022-07-26T13:25:37.038Z,22.80
2022-07-26T13:28:08.491Z,22.60
2022-07-26T13:30:38.333Z,23.10
2022-07-26T13:33:06.476Z,22.70
2022-07-26T13:35:34.560Z,23.10
2022-07-26T13:38:02.698Z,22.50
2022-07-26T13:40:31.734Z,22.60
2022-07-26T13:43:01.567Z,22.60
2022-07-26T13:45:29.924Z,21.90
2022-07-26T13:47:59.540Z,22.20
2022-07-26T13:50:28.247Z,22.40
2022-07-26T13:52:57.267Z,22.80
2022-07-26T13:55:25.859Z,23.80
2022-07-26T13:57:56.839Z,24.10
2022-07-26T14:00:27.951Z,23.70
2022-07-26T14:02:58.863Z,23.10
2022-07-26T14:05:28.056Z,22.90
2022-07-26T14:07:56.665Z,23.20
2022-07-26T14:10:25.692Z,22.50
2022-07-26T14:12:54.414Z,21.80
2022-07-26T14:15:23.713Z,22.30
2022-07-26T14:17:53.816Z,23.20
2022-07-26T14:20:22.410Z,23.70
2022-07-26T14:22:53.434Z,24.70
2022-07-26T14:25:22.196Z,24.70
2022-07-26T14:27:50.931Z,24.60
2022-07-26T14:30:19.480Z,24.10
2022-07-26T14:32:48.055Z,23.70
2022-07-26T14:35:17.666Z,23.80
2022-07-26T14:37:46.254Z,23.50
2022-07-26T14:40:16.313Z,23.00
2022-07-26T14:42:44.887Z,22.90
2022-07-26T14:45:14.121Z,23.20
2022-07-26T14:47:42.612Z,23.70
2022-07-26T14:50:12.639Z,24.90
2022-07-26T14:52:43.595Z,24.90
2022-07-26T14:55:12.193Z,23.90
2022-07-26T14:57:41.043Z,24.00
2022-07-26T15:00:12.285Z,24.20
2022-07-26T15:02:41.829Z,24.60
2022-07-26T15:05:10.873Z,24.60
2022-07-26T15:07:39.051Z,24.10
2022-07-26T15:10:10.412Z,23.70
2022-07-26T15:12:38.887Z,23.90
2022-07-26T15:15:08.658Z,24.10
2022-07-26T15:17:37.354Z,24.00
2022-07-26T15:20:06.806Z,23.80
2022-07-26T15:22:35.494Z,23.50
2022-07-26T15:25:03.640Z,23.20
2022-07-26T15:27:33.186Z,22.70
2022-07-26T15:30:05.093Z,23.40
2022-07-26T15:32:35.360Z,23.10
2022-07-26T15:35:03.821Z,22.60
2022-07-26T15:37:31.922Z,22.40
2022-07-26T15:40:00.176Z,22.70
2022-07-26T15:42:30.849Z,23.50
2022-07-26T15:45:01.114Z,22.80
2022-07-26T15:47:53.581Z,22.70
2022-07-26T15:50:24.112Z,23.00
2022-07-26T15:52:52.946Z,23.20
2022-07-26T15:55:21.171Z,23.50
2022-07-26T15:57:49.302Z,23.00
2022-07-26T16:00:19.483Z,22.60
2022-07-26T16:02:47.684Z,22.30
2022-07-26T16:05:15.938Z,22.00
2022-07-26T16:07:46.425Z,21.90
2022-07-26T16:10:16.241Z,22.80
2022-07-26T16:12:44.394Z,23.50
2022-07-26T16:15:12.862Z,23.60
2022-07-26T16:17:42.344Z,24.50
2022-07-26T16:20:10.883Z,24.80
2022-07-26T16:22:41.135Z,24.20
2022-07-26T16:25:13.123Z,22.90
2022-07-26T16:27:42.524Z,22.50
2022-07-26T16:30:12.111Z,22.00
2022-07-26T16:32:40.236Z,21.90
2022-07-26T16:35:10.812Z,22.50
2022-07-26T16:37:39.014Z,21.60
2022-07-26T16:40:08.868Z,21.30
2022-07-26T16:42:37.142Z,21.70
2022-07-26T16:45:06.004Z,21.80
2022-07-26T16:47:34.075Z,21.50
2022-07-26T16:50:02.471Z,21.90
2022-07-26T16:52:31.910Z,22.60
2022-07-26T16:55:00.235Z,22.40
2022-07-26T16:57:28.474Z,22.10
2022-07-26T16:59:56.689Z,22.40
2022-07-26T17:02:27.041Z,22.20
2022-07-26T17:04:57.223Z,22.00
2022-07-26T17:07:26.401Z,21.80
2022-07-26T17:09:57.182Z,22.50
2022-07-26T17:12:26.067Z,22.50
2022-07-26T17:14:54.653Z,21.80
2022-07-26T17:17:22.904Z,22.50
2022-07-26T17:19:51.392Z,22.50
2022-07-26T17:22:20.081Z,22.40
2022-07-26T17:24:48.670Z,21.90
2022-07-26T17:27:18.985Z,21.80
2022-07-26T17:29:47.150Z,21.80
2022-07-26T17:32:15.256Z,21.50
2022-07-26T17:34:43.329Z,21.30
2022-07-26T17:37:12.481Z,21.10
2022-07-26T17:39:50.889Z,21.20
2022-07-26T17:42:22.771Z,21.40
2022-07-26T17:44:51.238Z,20.90
2022-07-26T17:47:29.207Z,20.70
2022-07-26T17:52:51.755Z,21.00
2022-07-26T17:55:20.397Z,20.90
2022-07-26T17:57:50.916Z,20.70
2022-07-26T18:00:21.240Z,21.00
2022-07-26T18:02:49.569Z,21.20
2022-07-26T18:05:19.031Z,21.20
2022-07-26T18:07:47.188Z,20.80
2022-07-26T18:10:15.427Z,20.40
2022-07-26T18:12:43.755Z,20.70
2022-07-26T18:15:13.649Z,20.50
2022-07-26T18:17:41.722Z,20.70
2022-07-26T18:20:11.288Z,20.40
2022-07-26T18:22:39.984Z,20.40
2022-07-26T18:25:08.628Z,20.00
2022-07-26T18:27:37.104Z,19.70
2022-07-26T18:30:06.459Z,19.60
2022-07-26T18:32:35.959Z,19.70
2022-07-26T18:35:04.234Z,19.50
2022-07-26T18:37:32.766Z,19.60
2022-07-26T18:40:01.089Z,19.50
2022-07-26T18:42:29.187Z,19.40
2022-07-26T18:44:57.358Z,19.20
2022-07-26T18:47:25.578Z,19.30
2022-07-26T18:49:55.059Z,19.40
2022-07-26T18:52:31.572Z,19.20
2022-07-26T18:55:02.026Z,19.00
2022-07-26T18:57:30.148Z,18.90
2022-07-26T18:59:58.219Z,19.00
2022-07-26T19:02:26.313Z,18.80
2022-07-26T19:04:56.180Z,18.90
2022-07-26T19:07:24.287Z,18.60
2022-07-26T19:09:57.835Z,18.80
2022-07-26T19:12:27.226Z,18.70
2022-07-26T19:14:55.398Z,18.90
2022-07-26T19:17:23.740Z,18.70
2022-07-26T19:19:51.867Z,18.60
2022-07-26T19:22:21.472Z,18.60
2022-07-26T19:24:49.899Z,18.50
2022-07-26T19:27:18.132Z,18.60
2022-07-26T19:29:46.306Z,18.40
2022-07-26T19:32:14.444Z,18.30
2022-07-26T19:34:42.691Z,18.30
2022-07-26T19:37:10.885Z,18.40
2022-07-26T19:39:40.413Z,18.00
2022-07-26T19:42:08.886Z,18.20
2022-07-26T19:44:37.078Z,18.20
2022-07-26T19:47:05.224Z,18.00
2022-07-26T19:49:33.321Z,18.20
2022-07-26T19:52:01.494Z,18.10
2022-07-26T19:54:29.649Z,18.00
2022-07-26T19:56:59.160Z,18.00
2022-07-26T19:59:27.374Z,18.10
2022-07-26T20:01:56.679Z,18.00
2022-07-26T20:04:26.710Z,17.90
2022-07-26T20:06:55.188Z,17.90
2022-07-26T20:09:23.449Z,17.80
2022-07-26T20:11:51.853Z,17.90
2022-07-26T20:14:22.269Z,17.80
2022-07-26T20:16:55.814Z,18.00
2022-07-26T20:19:26.743Z,17.70
2022-07-26T20:21:55.021Z,17.70
2022-07-26T20:24:23.159Z,17.50
2022-07-26T20:26:51.236Z,17.30
2022-07-26T20:29:20.849Z,17.30
2022-07-26T20:31:49.010Z,17.10
2022-07-26T20:34:17.163Z,17.10
2022-07-26T20:36:45.236Z,17.10
2022-07-26T20:39:13.820Z,16.90
2022-07-26T20:41:42.090Z,16.90
2022-07-26T20:44:10.663Z,16.90
2022-07-26T20:46:42.269Z,16.80
2022-07-26T20:49:11.145Z,16.80
2022-07-26T20:51:39.695Z,16.70
2022-07-26T20:54:08.632Z,16.50
2022-07-26T20:56:37.050Z,16.40
2022-07-26T20:59:06.147Z,16.30
2022-07-26T21:01:35.189Z,16.30
2022-07-26T21:04:05.167Z,16.20
2022-07-26T21:06:34.210Z,16.20
2022-07-26T21:09:09.650Z,16.10
2022-07-26T21:11:39.424Z,16.00
2022-07-26T21:14:07.767Z,16.00
2022-07-26T21:16:36.301Z,15.90
2022-07-26T21:19:06.648Z,15.80
2022-07-26T21:21:37.000Z,15.80
2022-07-26T21:24:06.376Z,15.80
2022-07-26T21:26:34.545Z,15.80
2022-07-26T21:29:02.788Z,15.80
2022-07-26T21:31:30.980Z,15.80
2022-07-26T21:33:59.170Z,15.70
2022-07-26T21:36:28.655Z,15.80
2022-07-26T21:38:56.882Z,15.90
2022-07-26T21:41:25.025Z,15.90
2022-07-26T21:43:53.164Z,16.00
2022-07-26T21:46:21.570Z,16.00
2022-07-26T21:48:49.780Z,16.10
2022-07-26T21:51:18.330Z,16.10
2022-07-26T21:53:48.199Z,16.10
2022-07-26T21:56:16.259Z,15.90
2022-07-26T21:58:44.401Z,15.80
2022-07-26T22:01:15.200Z,15.80
2022-07-26T22:03:44.320Z,15.70
2022-07-26T22:06:12.506Z,15.70
2022-07-26T22:08:40.914Z,15.70
2022-07-26T22:11:10.648Z,15.90
2022-07-26T22:13:39.587Z,15.80
2022-07-26T22:16:08.457Z,15.70
2022-07-26T22:18:36.610Z,15.60
2022-07-26T22:21:05.048Z,15.60
2022-07-26T22:23:33.455Z,15.70
2022-07-26T22:26:02.981Z,15.60
2022-07-26T22:28:34.130Z,15.60
2022-07-26T22:31:02.854Z,15.50
2022-07-26T22:33:30.994Z,15.40
2022-07-26T22:35:59.367Z,15.40
2022-07-26T22:38:27.626Z,15.30
2022-07-26T22:40:55.688Z,15.30
2022-07-26T22:43:23.796Z,15.10
2022-07-26T22:45:53.327Z,15.00
2022-07-26T22:48:21.560Z,15.00
2022-07-26T22:50:49.699Z,14.90
2022-07-26T22:53:17.815Z,14.80
2022-07-26T22:55:45.958Z,14.60
2022-07-26T22:58:14.139Z,14.40
2022-07-26T23:00:42.385Z,14.40
2022-07-26T23:03:19.347Z,14.40
2022-07-26T23:05:48.407Z,14.30
2022-07-26T23:08:45.716Z,14.40
2022-07-26T23:11:04.851Z,14.10
2022-07-26T23:13:33.151Z,14.10
2022-07-26T23:16:02.038Z,14.00
2022-07-26T23:18:34.176Z,13.80
2022-07-26T23:21:02.361Z,13.70
2022-07-26T23:23:32.493Z,13.50
2022-07-26T23:26:01.013Z,13.30
2022-07-26T23:28:37.548Z,13.40
2022-07-26T23:31:08.660Z,13.40
2022-07-26T23:33:52.440Z,13.40
2022-07-26T23:36:26.110Z,13.40
2022-07-26T23:38:55.152Z,13.10
2022-07-26T23:41:23.728Z,12.90
2022-07-26T23:43:52.772Z,13.00
2022-07-26T23:46:21.001Z,12.50
2022-07-26T23:48:51.442Z,12.60
2022-07-26T23:51:20.351Z,12.80
2022-07-26T23:53:48.723Z,13.00
2022-07-26T23:56:16.941Z,13.00
2022-07-26T23:58:45.617Z,13.10
